sensor_id;sensor_type;location;lat;lon;timestamp;P1;durP1;ratioP1;P2;durP2;ratioP2
59366;SDS011;45163;47.690;11.770;2022-07-19T00:01:43;2.23;;;1.73;;
59366;SDS011;45163;47.690;11.770;2022-07-19T00:04:09;2.40;;;1.70;;
59366;SDS011;45163;47.690;11.770;2022-07-19T00:06:35;5.93;;;1.80;;
59366;SDS011;45163;47.690;11.770;2022-07-19T00:09:01;2.17;;;1.90;;
59366;SDS011;45163;47.690;11.770;2022-07-19T00:11:29;5.03;;;2.00;;
59366;SDS011;45163;47.690;11.770;2022-07-19T00:13:55;2.23;;;1.70;;
59366;SDS011;45163;47.690;11.770;2022-07-19T00:16:21;3.10;;;1.80;;
59366;SDS011;45163;47.690;11.770;2022-07-19T00:18:47;2.00;;;1.80;;
59366;SDS011;45163;47.690;11.770;2022-07-19T00:21:13;2.33;;;1.80;;
59366;SDS011;45163;47.690;11.770;2022-07-19T00:23:39;4.43;;;1.70;;
59366;SDS011;45163;47.690;11.770;2022-07-19T00:26:05;6.33;;;1.80;;
59366;SDS011;45163;47.690;11.770;2022-07-19T00:28:32;4.80;;;1.67;;
59366;SDS011;45163;47.690;11.770;2022-07-19T00:30:58;2.93;;;1.60;;
59366;SDS011;45163;47.690;11.770;2022-07-19T00:33:24;1.97;;;1.60;;
59366;SDS011;45163;47.690;11.770;2022-07-19T00:35:50;2.33;;;1.83;;
59366;SDS011;45163;47.690;11.770;2022-07-19T00:38:16;7.37;;;1.83;;
59366;SDS011;45163;47.690;11.770;2022-07-19T00:40:42;3.30;;;1.80;;
59366;SDS011;45163;47.690;11.770;2022-07-19T00:43:09;2.40;;;1.70;;
59366;SDS011;45163;47.690;11.770;2022-07-19T00:45:36;2.20;;;1.83;;
59366;SDS011;45163;47.690;11.770;2022-07-19T00:48:03;3.00;;;1.50;;
59366;SDS011;45163;47.690;11.770;2022-07-19T00:50:29;2.90;;;1.90;;
59366;SDS011;45163;47.690;11.770;2022-07-19T00:52:57;2.10;;;1.90;;
59366;SDS011;45163;47.690;11.770;2022-07-19T00:55:27;4.43;;;1.87;;
59366;SDS011;45163;47.690;11.770;2022-07-19T00:57:55;3.07;;;1.70;;
59366;SDS011;45163;47.690;11.770;2022-07-19T01:00:22;2.53;;;1.90;;
59366;SDS011;45163;47.690;11.770;2022-07-19T01:02:50;1.90;;;1.70;;
59366;SDS011;45163;47.690;11.770;2022-07-19T01:05:17;3.20;;;1.57;;
59366;SDS011;45163;47.690;11.770;2022-07-19T01:07:44;1.90;;;1.60;;
59366;SDS011;45163;47.690;11.770;2022-07-19T01:10:13;3.10;;;1.97;;
59366;SDS011;45163;47.690;11.770;2022-07-19T01:12:40;2.23;;;1.83;;
59366;SDS011;45163;47.690;11.770;2022-07-19T01:15:20;1.90;;;1.70;;
59366;SDS011;45163;47.690;11.770;2022-07-19T01:17:48;6.00;;;1.87;;
59366;SDS011;45163;47.690;11.770;2022-07-19T01:20:15;4.10;;;1.80;;
59366;SDS011;45163;47.690;11.770;2022-07-19T01:22:42;2.20;;;1.80;;
59366;SDS011;45163;47.690;11.770;2022-07-19T01:25:09;3.00;;;1.80;;
59366;SDS011;45163;47.690;11.770;2022-07-19T01:27:54;2.50;;;1.90;;
59366;SDS011;45163;47.690;11.770;2022-07-19T01:30:23;1.80;;;1.70;;
59366;SDS011;45163;47.690;11.770;2022-07-19T01:32:50;2.00;;;1.70;;
59366;SDS011;45163;47.690;11.770;2022-07-19T01:35:17;2.20;;;1.77;;
59366;SDS011;45163;47.690;11.770;2022-07-19T01:37:44;2.60;;;1.80;;
59366;SDS011;45163;47.690;11.770;2022-07-19T01:40:12;2.27;;;1.73;;
59366;SDS011;45163;47.690;11.770;2022-07-19T01:42:40;5.80;;;1.93;;
59366;SDS011;45163;47.690;11.770;2022-07-19T01:45:07;2.33;;;1.80;;
59366;SDS011;45163;47.690;11.770;2022-07-19T01:47:35;3.70;;;1.80;;
59366;SDS011;45163;47.690;11.770;2022-07-19T01:50:02;3.43;;;1.83;;
59366;SDS011;45163;47.690;11.770;2022-07-19T01:52:30;4.10;;;1.70;;
59366;SDS011;45163;47.690;11.770;2022-07-19T01:54:56;1.87;;;1.63;;
59366;SDS011;45163;47.690;11.770;2022-07-19T01:57:22;2.07;;;1.57;;
59366;SDS011;45163;47.690;11.770;2022-07-19T01:59:48;1.80;;;1.70;;
59366;SDS011;45163;47.690;11.770;2022-07-19T02:02:14;1.83;;;1.63;;
59366;SDS011;45163;47.690;11.770;2022-07-19T02:04:40;3.30;;;1.90;;
59366;SDS011;45163;47.690;11.770;2022-07-19T02:07:05;2.50;;;1.70;;
59366;SDS011;45163;47.690;11.770;2022-07-19T02:09:32;2.67;;;1.90;;
59366;SDS011;45163;47.690;11.770;2022-07-19T02:11:58;5.73;;;2.10;;
59366;SDS011;45163;47.690;11.770;2022-07-19T02:14:24;2.67;;;1.90;;
59366;SDS011;45163;47.690;11.770;2022-07-19T02:16:50;2.47;;;1.70;;
59366;SDS011;45163;47.690;11.770;2022-07-19T02:19:16;2.53;;;2.00;;
59366;SDS011;45163;47.690;11.770;2022-07-19T02:21:42;1.87;;;1.70;;
59366;SDS011;45163;47.690;11.770;2022-07-19T02:24:08;2.70;;;1.70;;
59366;SDS011;45163;47.690;11.770;2022-07-19T02:26:35;1.97;;;1.80;;
59366;SDS011;45163;47.690;11.770;2022-07-19T02:29:01;2.73;;;2.10;;
59366;SDS011;45163;47.690;11.770;2022-07-19T02:31:27;2.17;;;1.93;;
59366;SDS011;45163;47.690;11.770;2022-07-19T02:33:53;4.20;;;1.90;;
59366;SDS011;45163;47.690;11.770;2022-07-19T02:36:19;2.27;;;1.73;;
59366;SDS011;45163;47.690;11.770;2022-07-19T02:38:46;3.63;;;1.87;;
59366;SDS011;45163;47.690;11.770;2022-07-19T02:41:12;2.13;;;1.93;;
59366;SDS011;45163;47.690;11.770;2022-07-19T02:43:39;2.80;;;2.07;;
59366;SDS011;45163;47.690;11.770;2022-07-19T02:46:06;2.27;;;1.80;;
59366;SDS011;45163;47.690;11.770;2022-07-19T02:48:32;2.17;;;1.80;;
59366;SDS011;45163;47.690;11.770;2022-07-19T02:50:58;2.47;;;1.77;;
59366;SDS011;45163;47.690;11.770;2022-07-19T02:53:24;2.70;;;1.80;;
59366;SDS011;45163;47.690;11.770;2022-07-19T02:55:50;5.50;;;1.80;;
59366;SDS011;45163;47.690;11.770;2022-07-19T02:58:16;6.33;;;1.80;;
59366;SDS011;45163;47.690;11.770;2022-07-19T03:00:43;1.97;;;1.80;;
59366;SDS011;45163;47.690;11.770;2022-07-19T03:03:09;2.63;;;2.00;;
59366;SDS011;45163;47.690;11.770;2022-07-19T03:05:53;3.97;;;1.57;;
59366;SDS011;45163;47.690;11.770;2022-07-19T03:08:21;2.53;;;1.90;;
59366;SDS011;45163;47.690;11.770;2022-07-19T03:10:47;2.20;;;1.60;;
59366;SDS011;45163;47.690;11.770;2022-07-19T03:13:13;2.10;;;1.80;;
59366;SDS011;45163;47.690;11.770;2022-07-19T03:15:39;2.03;;;1.83;;
59366;SDS011;45163;47.690;11.770;2022-07-19T03:18:05;2.37;;;1.70;;
59366;SDS011;45163;47.690;11.770;2022-07-19T03:20:31;4.03;;;1.90;;
59366;SDS011;45163;47.690;11.770;2022-07-19T03:22:57;3.10;;;1.83;;
59366;SDS011;45163;47.690;11.770;2022-07-19T03:25:23;1.67;;;1.53;;
59366;SDS011;45163;47.690;11.770;2022-07-19T03:27:49;5.07;;;1.90;;
59366;SDS011;45163;47.690;11.770;2022-07-19T03:30:16;3.63;;;1.87;;
59366;SDS011;45163;47.690;11.770;2022-07-19T03:32:42;4.13;;;2.03;;
59366;SDS011;45163;47.690;11.770;2022-07-19T03:35:08;4.03;;;1.87;;
59366;SDS011;45163;47.690;11.770;2022-07-19T03:37:34;2.67;;;1.97;;
59366;SDS011;45163;47.690;11.770;2022-07-19T03:40:00;1.70;;;1.60;;
59366;SDS011;45163;47.690;11.770;2022-07-19T03:42:26;2.23;;;1.80;;
59366;SDS011;45163;47.690;11.770;2022-07-19T03:44:52;2.50;;;1.90;;
59366;SDS011;45163;47.690;11.770;2022-07-19T03:47:18;2.57;;;1.77;;
59366;SDS011;45163;47.690;11.770;2022-07-19T03:49:44;2.10;;;1.87;;
59366;SDS011;45163;47.690;11.770;2022-07-19T03:52:10;2.00;;;1.77;;
59366;SDS011;45163;47.690;11.770;2022-07-19T03:54:37;3.40;;;2.17;;
59366;SDS011;45163;47.690;11.770;2022-07-19T03:57:03;3.23;;;1.83;;
59366;SDS011;45163;47.690;11.770;2022-07-19T03:59:29;3.87;;;1.87;;
59366;SDS011;45163;47.690;11.770;2022-07-19T04:01:55;5.87;;;2.10;;
59366;SDS011;45163;47.690;11.770;2022-07-19T04:04:21;2.13;;;1.90;;
59366;SDS011;45163;47.690;11.770;2022-07-19T04:06:47;5.47;;;1.93;;
59366;SDS011;45163;47.690;11.770;2022-07-19T04:09:13;2.40;;;1.80;;
59366;SDS011;45163;47.690;11.770;2022-07-19T04:11:39;3.10;;;1.80;;
59366;SDS011;45163;47.690;11.770;2022-07-19T04:14:05;2.57;;;2.00;;
59366;SDS011;45163;47.690;11.770;2022-07-19T04:16:31;7.90;;;2.27;;
59366;SDS011;45163;47.690;11.770;2022-07-19T04:18:57;2.33;;;1.80;;
59366;SDS011;45163;47.690;11.770;2022-07-19T04:21:23;2.50;;;2.00;;
59366;SDS011;45163;47.690;11.770;2022-07-19T04:23:49;2.87;;;2.03;;
59366;SDS011;45163;47.690;11.770;2022-07-19T04:26:15;4.97;;;2.23;;
59366;SDS011;45163;47.690;11.770;2022-07-19T04:28:41;4.83;;;2.40;;
59366;SDS011;45163;47.690;11.770;2022-07-19T04:31:07;2.87;;;1.90;;
59366;SDS011;45163;47.690;11.770;2022-07-19T04:33:33;5.67;;;1.97;;
59366;SDS011;45163;47.690;11.770;2022-07-19T04:36:02;3.30;;;2.20;;
59366;SDS011;45163;47.690;11.770;2022-07-19T04:38:28;5.33;;;2.10;;
59366;SDS011;45163;47.690;11.770;2022-07-19T04:40:54;3.73;;;2.00;;
59366;SDS011;45163;47.690;11.770;2022-07-19T04:43:20;2.97;;;2.00;;
59366;SDS011;45163;47.690;11.770;2022-07-19T04:45:46;4.33;;;1.93;;
59366;SDS011;45163;47.690;11.770;2022-07-19T04:48:12;2.37;;;1.90;;
59366;SDS011;45163;47.690;11.770;2022-07-19T04:50:40;3.47;;;1.90;;
59366;SDS011;45163;47.690;11.770;2022-07-19T04:53:07;3.97;;;2.50;;
59366;SDS011;45163;47.690;11.770;2022-07-19T04:55:34;6.10;;;2.20;;
59366;SDS011;45163;47.690;11.770;2022-07-19T04:58:02;4.50;;;2.10;;
59366;SDS011;45163;47.690;11.770;2022-07-19T05:00:28;2.43;;;1.93;;
59366;SDS011;45163;47.690;11.770;2022-07-19T05:02:55;2.43;;;2.10;;
59366;SDS011;45163;47.690;11.770;2022-07-19T05:05:21;6.57;;;1.93;;
59366;SDS011;45163;47.690;11.770;2022-07-19T05:07:48;3.03;;;1.80;;
59366;SDS011;45163;47.690;11.770;2022-07-19T05:10:15;2.20;;;1.83;;
59366;SDS011;45163;47.690;11.770;2022-07-19T05:12:41;2.87;;;2.10;;
59366;SDS011;45163;47.690;11.770;2022-07-19T05:15:07;3.90;;;2.00;;
59366;SDS011;45163;47.690;11.770;2022-07-19T05:17:34;5.87;;;2.23;;
59366;SDS011;45163;47.690;11.770;2022-07-19T05:20:00;3.33;;;1.90;;
59366;SDS011;45163;47.690;11.770;2022-07-19T05:22:26;8.30;;;2.33;;
59366;SDS011;45163;47.690;11.770;2022-07-19T05:24:53;6.33;;;1.93;;
59366;SDS011;45163;47.690;11.770;2022-07-19T05:27:19;8.60;;;2.10;;
59366;SDS011;45163;47.690;11.770;2022-07-19T05:29:46;5.10;;;2.03;;
59366;SDS011;45163;47.690;11.770;2022-07-19T05:32:12;4.30;;;1.93;;
59366;SDS011;45163;47.690;11.770;2022-07-19T05:34:38;8.67;;;2.10;;
59366;SDS011;45163;47.690;11.770;2022-07-19T05:37:04;4.63;;;2.00;;
59366;SDS011;45163;47.690;11.770;2022-07-19T05:39:30;4.27;;;1.93;;
59366;SDS011;45163;47.690;11.770;2022-07-19T05:41:56;5.07;;;2.10;;
59366;SDS011;45163;47.690;11.770;2022-07-19T05:44:22;4.13;;;2.20;;
59366;SDS011;45163;47.690;11.770;2022-07-19T05:46:48;3.43;;;2.00;;
59366;SDS011;45163;47.690;11.770;2022-07-19T05:49:15;2.70;;;1.70;;
59366;SDS011;45163;47.690;11.770;2022-07-19T05:51:41;2.47;;;1.93;;
59366;SDS011;45163;47.690;11.770;2022-07-19T05:54:07;10.87;;;2.10;;
59366;SDS011;45163;47.690;11.770;2022-07-19T05:56:33;4.67;;;2.10;;
59366;SDS011;45163;47.690;11.770;2022-07-19T05:58:59;5.70;;;1.97;;
59366;SDS011;45163;47.690;11.770;2022-07-19T06:01:27;4.47;;;1.80;;
59366;SDS011;45163;47.690;11.770;2022-07-19T06:03:54;2.73;;;1.73;;
59366;SDS011;45163;47.690;11.770;2022-07-19T06:06:22;3.97;;;1.97;;
59366;SDS011;45163;47.690;11.770;2022-07-19T06:08:49;3.33;;;1.90;;
59366;SDS011;45163;47.690;11.770;2022-07-19T06:11:16;12.43;;;2.13;;
59366;SDS011;45163;47.690;11.770;2022-07-19T06:13:43;2.70;;;1.93;;
59366;SDS011;45163;47.690;11.770;2022-07-19T06:16:10;3.30;;;1.80;;
59366;SDS011;45163;47.690;11.770;2022-07-19T06:18:37;5.93;;;2.20;;
59366;SDS011;45163;47.690;11.770;2022-07-19T06:21:07;4.23;;;1.90;;
59366;SDS011;45163;47.690;11.770;2022-07-19T06:23:35;5.20;;;1.90;;
59366;SDS011;45163;47.690;11.770;2022-07-19T06:26:03;2.90;;;1.80;;
59366;SDS011;45163;47.690;11.770;2022-07-19T06:28:30;5.03;;;2.00;;
59366;SDS011;45163;47.690;11.770;2022-07-19T06:30:56;3.97;;;1.90;;
59366;SDS011;45163;47.690;11.770;2022-07-19T06:33:22;5.10;;;1.87;;
59366;SDS011;45163;47.690;11.770;2022-07-19T06:35:48;5.17;;;1.90;;
59366;SDS011;45163;47.690;11.770;2022-07-19T06:38:14;1.97;;;1.67;;
59366;SDS011;45163;47.690;11.770;2022-07-19T06:40:41;4.72;;;1.85;;
59366;SDS011;45163;47.690;11.770;2022-07-19T06:43:07;2.45;;;1.90;;
59366;SDS011;45163;47.690;11.770;2022-07-19T06:45:33;7.00;;;2.22;;
59366;SDS011;45163;47.690;11.770;2022-07-19T06:48:00;5.13;;;1.92;;
59366;SDS011;45163;47.690;11.770;2022-07-19T06:50:26;4.07;;;1.80;;
59366;SDS011;45163;47.690;11.770;2022-07-19T06:52:52;3.42;;;2.03;;
59366;SDS011;45163;47.690;11.770;2022-07-19T06:55:18;2.88;;;1.80;;
59366;SDS011;45163;47.690;11.770;2022-07-19T06:57:44;2.53;;;1.90;;
59366;SDS011;45163;47.690;11.770;2022-07-19T07:00:11;3.55;;;1.90;;
59366;SDS011;45163;47.690;11.770;2022-07-19T07:02:39;5.65;;;2.38;;
59366;SDS011;45163;47.690;11.770;2022-07-19T07:05:06;4.70;;;2.00;;
59366;SDS011;45163;47.690;11.770;2022-07-19T07:07:34;3.28;;;2.00;;
59366;SDS011;45163;47.690;11.770;2022-07-19T07:10:00;11.35;;;2.45;;
59366;SDS011;45163;47.690;11.770;2022-07-19T07:12:27;2.33;;;1.65;;
59366;SDS011;45163;47.690;11.770;2022-07-19T07:14:54;2.95;;;2.00;;
59366;SDS011;45163;47.690;11.770;2022-07-19T07:17:20;3.05;;;1.90;;
59366;SDS011;45163;47.690;11.770;2022-07-19T07:19:47;4.18;;;1.98;;
59366;SDS011;45163;47.690;11.770;2022-07-19T07:22:13;5.78;;;2.47;;
59366;SDS011;45163;47.690;11.770;2022-07-19T07:24:39;2.30;;;2.00;;
59366;SDS011;45163;47.690;11.770;2022-07-19T07:27:05;3.03;;;1.77;;
59366;SDS011;45163;47.690;11.770;2022-07-19T07:29:32;2.72;;;1.95;;
59366;SDS011;45163;47.690;11.770;2022-07-19T07:31:58;2.85;;;1.70;;
59366;SDS011;45163;47.690;11.770;2022-07-19T07:34:24;2.33;;;2.00;;
59366;SDS011;45163;47.690;11.770;2022-07-19T07:36:50;2.03;;;1.88;;
59366;SDS011;45163;47.690;11.770;2022-07-19T07:39:16;5.00;;;1.90;;
59366;SDS011;45163;47.690;11.770;2022-07-19T07:41:43;5.78;;;2.05;;
59366;SDS011;45163;47.690;11.770;2022-07-19T07:44:09;3.65;;;1.90;;
59366;SDS011;45163;47.690;11.770;2022-07-19T07:46:35;2.33;;;1.98;;
59366;SDS011;45163;47.690;11.770;2022-07-19T07:49:01;3.38;;;2.10;;
59366;SDS011;45163;47.690;11.770;2022-07-19T07:51:27;2.85;;;2.15;;
59366;SDS011;45163;47.690;11.770;2022-07-19T07:53:53;7.55;;;2.30;;
59366;SDS011;45163;47.690;11.770;2022-07-19T07:56:19;2.30;;;2.10;;
59366;SDS011;45163;47.690;11.770;2022-07-19T07:58:45;3.42;;;2.20;;
59366;SDS011;45163;47.690;11.770;2022-07-19T08:01:11;3.42;;;2.08;;
59366;SDS011;45163;47.690;11.770;2022-07-19T08:03:37;5.25;;;2.30;;
59366;SDS011;45163;47.690;11.770;2022-07-19T08:06:03;3.15;;;2.25;;
59366;SDS011;45163;47.690;11.770;2022-07-19T08:08:29;5.50;;;2.20;;
59366;SDS011;45163;47.690;11.770;2022-07-19T08:10:56;3.38;;;2.10;;
59366;SDS011;45163;47.690;11.770;2022-07-19T08:13:22;5.45;;;2.35;;
59366;SDS011;45163;47.690;11.770;2022-07-19T08:15:49;2.92;;;2.05;;
59366;SDS011;45163;47.690;11.770;2022-07-19T08:18:16;2.88;;;2.10;;
59366;SDS011;45163;47.690;11.770;2022-07-19T08:20:43;3.75;;;2.05;;
59366;SDS011;45163;47.690;11.770;2022-07-19T08:23:09;2.63;;;2.17;;
59366;SDS011;45163;47.690;11.770;2022-07-19T08:25:35;3.85;;;2.10;;
59366;SDS011;45163;47.690;11.770;2022-07-19T08:28:02;2.85;;;2.20;;
59366;SDS011;45163;47.690;11.770;2022-07-19T08:30:29;3.13;;;2.03;;
59366;SDS011;45163;47.690;11.770;2022-07-19T08:32:55;4.82;;;2.30;;
59366;SDS011;45163;47.690;11.770;2022-07-19T08:35:21;4.82;;;2.30;;
59366;SDS011;45163;47.690;11.770;2022-07-19T08:37:48;2.95;;;2.05;;
59366;SDS011;45163;47.690;11.770;2022-07-19T08:40:14;2.22;;;2.03;;
59366;SDS011;45163;47.690;11.770;2022-07-19T08:42:40;3.60;;;2.30;;
59366;SDS011;45163;47.690;11.770;2022-07-19T08:45:08;3.60;;;2.25;;
59366;SDS011;45163;47.690;11.770;2022-07-19T08:47:35;2.00;;;1.90;;
59366;SDS011;45163;47.690;11.770;2022-07-19T08:50:03;3.05;;;2.20;;
59366;SDS011;45163;47.690;11.770;2022-07-19T08:52:33;6.22;;;2.10;;
59366;SDS011;45163;47.690;11.770;2022-07-19T08:55:00;6.60;;;2.00;;
59366;SDS011;45163;47.690;11.770;2022-07-19T08:57:26;5.05;;;2.00;;
59366;SDS011;45163;47.690;11.770;2022-07-19T09:00:11;3.45;;;2.15;;
59366;SDS011;45163;47.690;11.770;2022-07-19T09:02:38;4.30;;;2.00;;
59366;SDS011;45163;47.690;11.770;2022-07-19T09:05:05;3.25;;;2.42;;
59366;SDS011;45163;47.690;11.770;2022-07-19T09:07:34;4.15;;;2.08;;
59366;SDS011;45163;47.690;11.770;2022-07-19T09:10:14;2.67;;;2.13;;
59366;SDS011;45163;47.690;11.770;2022-07-19T09:18:15;3.38;;;2.13;;
59366;SDS011;45163;47.690;11.770;2022-07-19T09:20:46;2.42;;;2.10;;
59366;SDS011;45163;47.690;11.770;2022-07-19T09:23:14;2.88;;;2.00;;
59366;SDS011;45163;47.690;11.770;2022-07-19T09:25:42;2.58;;;1.98;;
59366;SDS011;45163;47.690;11.770;2022-07-19T09:28:14;4.00;;;2.05;;
59366;SDS011;45163;47.690;11.770;2022-07-19T09:33:09;4.57;;;2.45;;
59366;SDS011;45163;47.690;11.770;2022-07-19T09:35:36;3.45;;;2.45;;
59366;SDS011;45163;47.690;11.770;2022-07-19T09:38:14;2.67;;;2.10;;
59366;SDS011;45163;47.690;11.770;2022-07-19T09:40:41;3.60;;;2.60;;
59366;SDS011;45163;47.690;11.770;2022-07-19T09:43:07;3.85;;;2.53;;
59366;SDS011;45163;47.690;11.770;2022-07-19T09:45:33;2.88;;;2.50;;
59366;SDS011;45163;47.690;11.770;2022-07-19T09:47:59;5.03;;;2.20;;
59366;SDS011;45163;47.690;11.770;2022-07-19T09:50:26;3.35;;;2.45;;
59366;SDS011;45163;47.690;11.770;2022-07-19T09:52:52;4.45;;;2.30;;
59366;SDS011;45163;47.690;11.770;2022-07-19T09:55:19;2.13;;;2.00;;
59366;SDS011;45163;47.690;11.770;2022-07-19T09:57:46;3.00;;;2.03;;
59366;SDS011;45163;47.690;11.770;2022-07-19T10:00:14;3.65;;;2.20;;
59366;SDS011;45163;47.690;11.770;2022-07-19T10:02:47;3.05;;;2.33;;
59366;SDS011;45163;47.690;11.770;2022-07-19T10:05:16;5.75;;;2.20;;
59366;SDS011;45163;47.690;11.770;2022-07-19T10:07:42;4.68;;;2.25;;
59366;SDS011;45163;47.690;11.770;2022-07-19T10:10:09;5.13;;;2.15;;
59366;SDS011;45163;47.690;11.770;2022-07-19T10:12:37;5.07;;;2.53;;
59366;SDS011;45163;47.690;11.770;2022-07-19T10:15:07;6.10;;;2.35;;
59366;SDS011;45163;47.690;11.770;2022-07-19T10:20:26;8.70;;;2.67;;
59366;SDS011;45163;47.690;11.770;2022-07-19T10:22:56;5.60;;;2.40;;
59366;SDS011;45163;47.690;11.770;2022-07-19T10:25:24;3.17;;;2.72;;
59366;SDS011;45163;47.690;11.770;2022-07-19T10:28:03;2.95;;;2.60;;
59366;SDS011;45163;47.690;11.770;2022-07-19T10:30:37;5.82;;;2.60;;
59366;SDS011;45163;47.690;11.770;2022-07-19T10:33:25;3.15;;;2.47;;
59366;SDS011;45163;47.690;11.770;2022-07-19T10:35:56;3.00;;;2.72;;
59366;SDS011;45163;47.690;11.770;2022-07-19T10:38:22;4.63;;;2.80;;
59366;SDS011;45163;47.690;11.770;2022-07-19T10:40:49;4.80;;;2.72;;
59366;SDS011;45163;47.690;11.770;2022-07-19T10:43:20;3.35;;;2.70;;
59366;SDS011;45163;47.690;11.770;2022-07-19T10:51:04;4.30;;;2.53;;
59366;SDS011;45163;47.690;11.770;2022-07-19T10:59:14;3.20;;;2.83;;
59366;SDS011;45163;47.690;11.770;2022-07-19T11:01:39;3.70;;;2.50;;
59366;SDS011;45163;47.690;11.770;2022-07-19T11:04:25;5.05;;;2.55;;
59366;SDS011;45163;47.690;11.770;2022-07-19T11:09:40;6.88;;;2.38;;
59366;SDS011;45163;47.690;11.770;2022-07-19T11:12:21;3.28;;;2.67;;
59366;SDS011;45163;47.690;11.770;2022-07-19T11:15:03;2.83;;;2.55;;
59366;SDS011;45163;47.690;11.770;2022-07-19T11:17:34;5.53;;;2.75;;
59366;SDS011;45163;47.690;11.770;2022-07-19T11:20:02;4.38;;;2.80;;
59366;SDS011;45163;47.690;11.770;2022-07-19T11:22:33;6.03;;;2.78;;
59366;SDS011;45163;47.690;11.770;2022-07-19T11:25:00;3.75;;;2.70;;
59366;SDS011;45163;47.690;11.770;2022-07-19T11:27:29;4.22;;;2.97;;
59366;SDS011;45163;47.690;11.770;2022-07-19T11:29:56;3.53;;;3.17;;
59366;SDS011;45163;47.690;11.770;2022-07-19T11:32:24;5.22;;;2.50;;
59366;SDS011;45163;47.690;11.770;2022-07-19T11:34:57;4.97;;;2.90;;
59366;SDS011;45163;47.690;11.770;2022-07-19T11:37:33;4.45;;;2.70;;
59366;SDS011;45163;47.690;11.770;2022-07-19T11:40:03;3.42;;;2.50;;
59366;SDS011;45163;47.690;11.770;2022-07-19T11:42:37;3.47;;;2.67;;
59366;SDS011;45163;47.690;11.770;2022-07-19T11:45:29;5.93;;;2.83;;
59366;SDS011;45163;47.690;11.770;2022-07-19T11:47:55;4.18;;;2.70;;
59366;SDS011;45163;47.690;11.770;2022-07-19T11:50:24;5.35;;;2.70;;
59366;SDS011;45163;47.690;11.770;2022-07-19T11:52:52;6.85;;;3.05;;
59366;SDS011;45163;47.690;11.770;2022-07-19T11:55:29;8.65;;;2.85;;
59366;SDS011;45163;47.690;11.770;2022-07-19T11:58:08;7.47;;;2.78;;
59366;SDS011;45163;47.690;11.770;2022-07-19T12:00:36;4.68;;;2.92;;
59366;SDS011;45163;47.690;11.770;2022-07-19T12:03:03;3.58;;;2.90;;
59366;SDS011;45163;47.690;11.770;2022-07-19T12:05:32;4.97;;;2.70;;
59366;SDS011;45163;47.690;11.770;2022-07-19T12:08:05;3.60;;;2.53;;
59366;SDS011;45163;47.690;11.770;2022-07-19T12:10:37;5.80;;;3.05;;
59366;SDS011;45163;47.690;11.770;2022-07-19T12:13:06;3.65;;;2.75;;
59366;SDS011;45163;47.690;11.770;2022-07-19T12:18:17;5.53;;;2.70;;
59366;SDS011;45163;47.690;11.770;2022-07-19T12:20:45;4.93;;;2.92;;
59366;SDS011;45163;47.690;11.770;2022-07-19T12:23:31;3.00;;;2.80;;
59366;SDS011;45163;47.690;11.770;2022-07-19T12:26:03;3.08;;;2.78;;
59366;SDS011;45163;47.690;11.770;2022-07-19T12:28:50;5.10;;;2.75;;
59366;SDS011;45163;47.690;11.770;2022-07-19T12:31:16;3.33;;;2.80;;
59366;SDS011;45163;47.690;11.770;2022-07-19T12:33:42;4.88;;;2.80;;
59366;SDS011;45163;47.690;11.770;2022-07-19T12:36:08;4.10;;;3.00;;
59366;SDS011;45163;47.690;11.770;2022-07-19T12:38:34;8.73;;;3.40;;
59366;SDS011;45163;47.690;11.770;2022-07-19T12:41:06;5.43;;;2.88;;
59366;SDS011;45163;47.690;11.770;2022-07-19T12:43:34;5.82;;;3.05;;
59366;SDS011;45163;47.690;11.770;2022-07-19T12:46:00;4.50;;;3.38;;
59366;SDS011;45163;47.690;11.770;2022-07-19T12:48:28;3.70;;;3.30;;
59366;SDS011;45163;47.690;11.770;2022-07-19T12:50:54;4.70;;;3.20;;
59366;SDS011;45163;47.690;11.770;2022-07-19T12:53:20;5.18;;;3.42;;
59366;SDS011;45163;47.690;11.770;2022-07-19T12:55:46;3.95;;;3.42;;
59366;SDS011;45163;47.690;11.770;2022-07-19T12:58:14;3.85;;;3.47;;
59366;SDS011;45163;47.690;11.770;2022-07-19T13:01:00;6.82;;;3.40;;
59366;SDS011;45163;47.690;11.770;2022-07-19T13:03:27;8.73;;;3.03;;
59366;SDS011;45163;47.690;11.770;2022-07-19T13:05:53;7.15;;;3.45;;
59366;SDS011;45163;47.690;11.770;2022-07-19T13:08:19;5.57;;;3.50;;
59366;SDS011;45163;47.690;11.770;2022-07-19T13:10:45;6.05;;;2.80;;
59366;SDS011;45163;47.690;11.770;2022-07-19T13:13:11;4.63;;;2.50;;
59366;SDS011;45163;47.690;11.770;2022-07-19T13:15:37;4.78;;;2.85;;
59366;SDS011;45163;47.690;11.770;2022-07-19T13:18:03;5.47;;;2.40;;
59366;SDS011;45163;47.690;11.770;2022-07-19T13:20:29;4.70;;;2.50;;
59366;SDS011;45163;47.690;11.770;2022-07-19T13:22:55;5.45;;;2.55;;
59366;SDS011;45163;47.690;11.770;2022-07-19T13:25:21;3.38;;;2.78;;
59366;SDS011;45163;47.690;11.770;2022-07-19T13:27:47;3.92;;;2.65;;
59366;SDS011;45163;47.690;11.770;2022-07-19T13:30:13;3.80;;;2.55;;
59366;SDS011;45163;47.690;11.770;2022-07-19T13:32:39;4.07;;;2.65;;
59366;SDS011;45163;47.690;11.770;2022-07-19T13:35:06;7.07;;;2.92;;
59366;SDS011;45163;47.690;11.770;2022-07-19T13:37:32;6.47;;;2.75;;
59366;SDS011;45163;47.690;11.770;2022-07-19T13:39:58;3.10;;;2.47;;
59366;SDS011;45163;47.690;11.770;2022-07-19T13:42:25;5.10;;;2.70;;
59366;SDS011;45163;47.690;11.770;2022-07-19T13:44:51;3.70;;;2.67;;
59366;SDS011;45163;47.690;11.770;2022-07-19T13:47:17;4.18;;;2.92;;
59366;SDS011;45163;47.690;11.770;2022-07-19T13:49:43;4.28;;;2.88;;
59366;SDS011;45163;47.690;11.770;2022-07-19T13:52:09;5.75;;;2.63;;
59366;SDS011;45163;47.690;11.770;2022-07-19T13:54:35;5.00;;;2.40;;
59366;SDS011;45163;47.690;11.770;2022-07-19T13:57:01;5.28;;;2.85;;
59366;SDS011;45163;47.690;11.770;2022-07-19T13:59:27;4.18;;;2.40;;
59366;SDS011;45163;47.690;11.770;2022-07-19T14:01:55;3.47;;;2.60;;
59366;SDS011;45163;47.690;11.770;2022-07-19T14:04:21;5.22;;;2.60;;
59366;SDS011;45163;47.690;11.770;2022-07-19T14:06:47;4.40;;;2.72;;
59366;SDS011;45163;47.690;11.770;2022-07-19T14:09:14;5.15;;;2.95;;
59366;SDS011;45163;47.690;11.770;2022-07-19T14:11:40;3.30;;;2.75;;
59366;SDS011;45163;47.690;11.770;2022-07-19T14:14:06;3.97;;;2.40;;
59366;SDS011;45163;47.690;11.770;2022-07-19T14:16:32;3.88;;;2.47;;
59366;SDS011;45163;47.690;11.770;2022-07-19T14:18:57;5.82;;;2.70;;
59366;SDS011;45163;47.690;11.770;2022-07-19T14:21:23;8.55;;;3.03;;
59366;SDS011;45163;47.690;11.770;2022-07-19T14:23:50;7.88;;;2.83;;
59366;SDS011;45163;47.690;11.770;2022-07-19T14:26:16;4.70;;;2.53;;
59366;SDS011;45163;47.690;11.770;2022-07-19T14:28:42;5.57;;;2.50;;
59366;SDS011;45163;47.690;11.770;2022-07-19T14:31:08;3.20;;;2.40;;
59366;SDS011;45163;47.690;11.770;2022-07-19T14:33:34;7.20;;;2.70;;
59366;SDS011;45163;47.690;11.770;2022-07-19T14:36:00;5.93;;;2.80;;
59366;SDS011;45163;47.690;11.770;2022-07-19T14:38:26;10.00;;;6.13;;
59366;SDS011;45163;47.690;11.770;2022-07-19T14:40:51;5.57;;;3.10;;
59366;SDS011;45163;47.690;11.770;2022-07-19T14:43:17;6.38;;;2.90;;
59366;SDS011;45163;47.690;11.770;2022-07-19T14:45:43;7.00;;;3.35;;
59366;SDS011;45163;47.690;11.770;2022-07-19T14:48:09;9.40;;;5.68;;
59366;SDS011;45163;47.690;11.770;2022-07-19T14:50:36;8.55;;;4.88;;
59366;SDS011;45163;47.690;11.770;2022-07-19T14:53:02;7.90;;;2.95;;
59366;SDS011;45163;47.690;11.770;2022-07-19T14:55:28;6.57;;;2.90;;
59366;SDS011;45163;47.690;11.770;2022-07-19T14:57:54;4.93;;;2.85;;
59366;SDS011;45163;47.690;11.770;2022-07-19T15:00:20;4.13;;;3.05;;
59366;SDS011;45163;47.690;11.770;2022-07-19T15:02:46;5.88;;;2.78;;